createdAt,value
2019-01-17T00:02:54.651Z,18.00
2019-01-17T00:05:45.955Z,17.90
2019-01-17T00:08:45.944Z,17.90
2019-01-17T00:11:44.091Z,17.80
2019-01-17T00:14:43.622Z,17.70
2019-01-17T00:17:40.790Z,17.60
2019-01-17T00:20:35.908Z,17.50
2019-01-17T00:23:25.652Z,17.50
2019-01-17T00:26:15.063Z,17.40
2019-01-17T00:28:57.561Z,17.30
2019-01-17T00:31:46.918Z,17.20
2019-01-17T00:34:36.537Z,17.20
2019-01-17T00:37:52.042Z,17.10
2019-01-17T00:47:39.556Z,16.90
2019-01-17T00:50:46.441Z,16.80
2019-01-17T00:53:49.125Z,16.70
2019-01-17T00:56:32.776Z,16.70
2019-01-17T00:59:26.347Z,16.80
2019-01-17T01:02:36.275Z,16.80
2019-01-17T01:05:36.639Z,16.70
2019-01-17T01:08:44.181Z,16.70
2019-01-17T01:11:35.952Z,16.70
2019-01-17T01:14:54.268Z,16.70
2019-01-17T01:17:51.304Z,16.70
2019-01-17T01:20:46.978Z,16.50
2019-01-17T01:23:42.231Z,16.40
2019-01-17T01:26:50.353Z,16.50
2019-01-17T01:29:54.140Z,16.40
2019-01-17T01:33:02.778Z,16.30
2019-01-17T01:36:22.437Z,16.30
2019-01-17T01:39:20.760Z,16.30
2019-01-17T01:42:27.073Z,16.30
2019-01-17T01:45:08.901Z,16.30
2019-01-17T01:48:06.020Z,16.20
2019-01-17T01:51:12.124Z,16.10
2019-01-17T01:53:45.693Z,15.90
2019-01-17T01:56:19.662Z,15.90
2019-01-17T01:59:06.177Z,15.80
2019-01-17T02:01:47.291Z,15.70
2019-01-17T02:04:24.966Z,15.50
2019-01-17T02:06:58.195Z,15.40
2019-01-17T02:09:31.948Z,15.40
2019-01-17T02:12:12.986Z,15.40
2019-01-17T02:14:46.199Z,15.50
2019-01-17T02:17:20.115Z,15.50
2019-01-17T02:19:54.281Z,15.50
2019-01-17T02:22:35.293Z,15.40
2019-01-17T02:25:09.936Z,15.30
2019-01-17T02:27:44.527Z,15.40
2019-01-17T02:30:21.788Z,15.40
2019-01-17T02:32:57.384Z,15.40
2019-01-17T02:35:36.054Z,15.40
2019-01-17T02:41:52.471Z,15.30
2019-01-17T02:44:32.695Z,15.30
2019-01-17T02:47:06.733Z,15.30
2019-01-17T02:49:46.585Z,15.40
2019-01-17T02:52:21.041Z,15.30
2019-01-17T02:54:55.732Z,15.20
2019-01-17T02:57:31.528Z,15.10
2019-01-17T03:00:05.861Z,15.00
2019-01-17T03:02:42.829Z,14.90
2019-01-17T03:05:18.965Z,14.90
2019-01-17T03:07:54.472Z,14.80
2019-01-17T03:10:27.421Z,14.80
2019-01-17T03:13:00.557Z,14.80
2019-01-17T03:15:33.768Z,14.80
2019-01-17T03:18:08.598Z,14.80
2019-01-17T03:20:41.892Z,14.80
2019-01-17T03:23:16.134Z,14.80
2019-01-17T03:25:54.672Z,14.80
2019-01-17T03:28:28.653Z,14.80
2019-01-17T03:31:01.634Z,14.70
2019-01-17T03:36:18.564Z,14.70
2019-01-17T03:38:55.123Z,14.60
2019-01-17T03:41:28.919Z,14.60
2019-01-17T03:44:02.181Z,14.70
2019-01-17T03:46:35.605Z,14.70
2019-01-17T03:49:08.837Z,14.70
2019-01-17T03:51:44.331Z,14.70
2019-01-17T03:54:18.245Z,14.70
2019-01-17T03:56:51.512Z,14.60
2019-01-17T03:59:33.803Z,14.60
2019-01-17T04:02:16.683Z,14.50
2019-01-17T04:04:51.649Z,14.50
2019-01-17T04:07:24.918Z,14.50
2019-01-17T04:09:58.153Z,14.50
2019-01-17T04:12:31.781Z,14.40
2019-01-17T04:15:05.925Z,14.30
2019-01-17T04:17:39.247Z,14.30
2019-01-17T04:20:15.152Z,14.20
2019-01-17T04:22:49.670Z,14.20
2019-01-17T04:25:25.806Z,14.10
2019-01-17T04:28:00.954Z,14.10
2019-01-17T04:30:37.269Z,14.00
2019-01-17T04:33:12.510Z,14.00
2019-01-17T04:35:47.169Z,14.00
2019-01-17T04:38:20.705Z,14.00
2019-01-17T04:40:54.482Z,13.90
2019-01-17T04:43:27.923Z,13.80
2019-01-17T04:46:07.021Z,13.80
2019-01-17T04:48:46.597Z,13.80
2019-01-17T04:51:19.734Z,13.80
2019-01-17T04:53:53.225Z,13.70
2019-01-17T04:56:27.506Z,13.60
2019-01-17T04:59:00.695Z,13.60
2019-01-17T05:01:34.069Z,13.50
2019-01-17T05:04:07.116Z,13.50
2019-01-17T05:06:40.337Z,13.50
2019-01-17T05:09:13.578Z,13.40
2019-01-17T05:11:47.098Z,13.40
2019-01-17T05:14:20.829Z,13.40
2019-01-17T05:16:54.390Z,13.30
2019-01-17T05:19:27.834Z,13.30
2019-01-17T05:22:01.269Z,13.30
2019-01-17T05:24:34.544Z,13.20
2019-01-17T05:27:08.191Z,13.20
2019-01-17T05:29:41.269Z,13.20
2019-01-17T05:32:14.416Z,13.20
2019-01-17T05:34:47.638Z,13.10
2019-01-17T05:37:20.788Z,13.10
2019-01-17T05:39:55.695Z,13.10
2019-01-17T05:42:28.849Z,13.10
2019-01-17T05:45:02.108Z,13.00
2019-01-17T05:47:35.233Z,13.00
2019-01-17T05:50:08.886Z,13.00
2019-01-17T05:52:42.057Z,13.00
2019-01-17T05:55:20.151Z,13.00
2019-01-17T05:57:57.434Z,13.00
2019-01-17T06:00:30.643Z,13.00
2019-01-17T06:03:03.769Z,13.00
2019-01-17T06:05:36.911Z,12.90
2019-01-17T06:08:10.037Z,12.90
2019-01-17T06:10:43.233Z,12.90
2019-01-17T06:13:16.569Z,12.90
2019-01-17T06:15:49.979Z,13.00
2019-01-17T06:18:23.074Z,12.90
2019-01-17T06:20:56.276Z,12.90
2019-01-17T06:23:29.408Z,12.90
2019-01-17T06:26:02.802Z,12.80
2019-01-17T06:28:36.027Z,12.90
2019-01-17T06:31:09.165Z,12.80
2019-01-17T06:33:42.311Z,12.90
2019-01-17T06:36:15.946Z,12.90
2019-01-17T06:38:49.068Z,12.80
2019-01-17T06:41:22.886Z,12.80
2019-01-17T06:43:56.081Z,12.80
2019-01-17T06:46:29.210Z,12.80
2019-01-17T06:49:02.326Z,12.80
2019-01-17T06:51:35.447Z,12.80
2019-01-17T06:54:08.589Z,12.80
2019-01-17T06:56:41.769Z,12.70
2019-01-17T06:59:14.968Z,12.80
2019-01-17T07:01:48.061Z,12.80
2019-01-17T07:04:21.250Z,12.90
2019-01-17T07:06:54.333Z,12.90
2019-01-17T07:09:27.462Z,12.80
2019-01-17T07:12:00.565Z,12.80
2019-01-17T07:14:33.685Z,12.70
2019-01-17T07:17:06.795Z,12.70
2019-01-17T07:19:39.992Z,12.70
2019-01-17T07:22:13.394Z,12.70
2019-01-17T07:24:46.589Z,12.80
2019-01-17T07:27:19.716Z,12.90
2019-01-17T07:29:53.681Z,13.00
2019-01-17T07:32:26.793Z,13.10
2019-01-17T07:35:00.098Z,13.20
2019-01-17T07:37:33.299Z,13.20
2019-01-17T07:40:06.798Z,13.20
2019-01-17T07:42:40.004Z,13.10
2019-01-17T07:45:16.471Z,13.10
2019-01-17T07:47:49.595Z,13.10
2019-01-17T07:50:22.820Z,13.10
2019-01-17T07:52:55.969Z,13.00
2019-01-17T07:55:29.101Z,13.00
2019-01-17T07:58:02.233Z,13.00
2019-01-17T08:00:35.329Z,13.00
2019-01-17T08:03:08.679Z,13.00
2019-01-17T08:05:41.794Z,13.00
2019-01-17T08:08:15.159Z,13.10
2019-01-17T08:10:48.357Z,13.10
2019-01-17T08:13:21.489Z,13.10
2019-01-17T08:15:54.505Z,13.20
2019-01-17T08:18:27.601Z,13.30
2019-01-17T08:21:00.726Z,13.20
2019-01-17T08:23:34.651Z,13.10
2019-01-17T08:26:08.039Z,13.10
2019-01-17T08:28:41.141Z,13.00
2019-01-17T08:31:14.440Z,13.00
2019-01-17T08:33:47.742Z,13.00
2019-01-17T08:36:21.145Z,13.00
2019-01-17T08:38:54.264Z,13.00
2019-01-17T08:41:27.664Z,12.90
2019-01-17T08:44:00.915Z,12.90
2019-01-17T08:46:33.942Z,12.90
2019-01-17T08:49:07.053Z,12.90
2019-01-17T08:51:40.157Z,13.00
2019-01-17T08:54:13.276Z,12.90
2019-01-17T08:56:46.402Z,12.80
2019-01-17T08:59:19.529Z,12.90
2019-01-17T09:01:52.913Z,12.90
2019-01-17T09:04:26.037Z,12.90
2019-01-17T09:06:59.150Z,12.90
2019-01-17T09:09:32.278Z,13.00
2019-01-17T09:12:05.389Z,13.10
2019-01-17T09:14:38.574Z,13.10
2019-01-17T09:17:11.685Z,13.00
2019-01-17T09:19:44.862Z,13.00
2019-01-17T09:22:17.975Z,13.00
2019-01-17T09:24:51.158Z,13.00
2019-01-17T09:27:24.229Z,13.00
2019-01-17T09:29:57.556Z,13.00
2019-01-17T09:32:30.722Z,13.10
2019-01-17T09:35:04.124Z,13.10
2019-01-17T09:37:37.301Z,13.20
2019-01-17T09:40:12.243Z,13.20
2019-01-17T09:42:45.685Z,13.30
2019-01-17T09:45:19.065Z,13.20
2019-01-17T09:47:52.256Z,13.20
2019-01-17T09:50:26.919Z,13.20
2019-01-17T09:53:00.235Z,13.30
2019-01-17T09:55:33.601Z,13.20
2019-01-17T09:58:06.765Z,13.30
2019-01-17T10:00:39.860Z,13.20
2019-01-17T10:03:13.057Z,13.20
2019-01-17T10:05:46.186Z,13.20
2019-01-17T10:08:19.389Z,13.10
2019-01-17T10:10:52.419Z,13.00
2019-01-17T10:13:31.819Z,13.00
2019-01-17T10:16:32.681Z,13.00
2019-01-17T10:19:49.068Z,12.90
2019-01-17T10:22:58.689Z,12.80
2019-01-17T10:26:04.914Z,12.90
2019-01-17T10:29:12.525Z,12.80
2019-01-17T10:31:59.785Z,12.70
2019-01-17T10:35:08.009Z,12.70
2019-01-17T10:38:19.089Z,12.70
2019-01-17T10:41:33.264Z,12.70
2019-01-17T10:44:15.261Z,12.70
2019-01-17T10:47:32.582Z,12.60
2019-01-17T10:50:20.702Z,12.60
2019-01-17T10:53:35.512Z,12.60
2019-01-17T10:57:07.502Z,12.60
2019-01-17T10:59:54.994Z,12.60
2019-01-17T11:02:45.902Z,12.50
2019-01-17T11:05:52.777Z,12.50
2019-01-17T11:08:59.218Z,12.40
2019-01-17T11:12:00.735Z,12.50
2019-01-17T11:14:49.158Z,12.50
2019-01-17T11:18:04.137Z,12.50
2019-01-17T11:21:18.922Z,12.60
2019-01-17T11:24:35.208Z,12.60
2019-01-17T11:27:40.360Z,12.70
2019-01-17T11:31:05.266Z,12.80
2019-01-17T11:38:17.281Z,12.90
2019-01-17T11:45:22.765Z,13.00
2019-01-17T11:48:42.046Z,13.00
2019-01-17T11:52:20.674Z,13.00
2019-01-17T11:55:36.072Z,13.00
2019-01-17T11:59:11.490Z,13.00
2019-01-17T12:02:21.754Z,13.00
2019-01-17T12:04:51.335Z,13.10
2019-01-17T12:07:28.109Z,13.10
2019-01-17T12:10:01.879Z,13.10
2019-01-17T12:12:42.540Z,13.10
2019-01-17T12:15:15.874Z,13.20
2019-01-17T12:17:49.010Z,13.20
2019-01-17T12:20:33.327Z,13.30
2019-01-17T12:23:06.509Z,13.40
2019-01-17T12:25:39.764Z,13.50
2019-01-17T12:28:13.317Z,13.60
2019-01-17T12:30:46.452Z,13.60
2019-01-17T12:33:23.539Z,13.60
2019-01-17T12:35:56.677Z,13.60
2019-01-17T12:38:37.213Z,13.60
2019-01-17T12:41:10.309Z,13.60
2019-01-17T12:43:43.505Z,13.50
2019-01-17T12:46:16.969Z,13.50
2019-01-17T12:48:49.997Z,13.40
2019-01-17T12:51:26.376Z,13.40
2019-01-17T12:53:59.444Z,13.40
2019-01-17T12:56:34.034Z,13.40
2019-01-17T12:59:09.937Z,13.40
2019-01-17T13:01:43.323Z,13.40
2019-01-17T13:04:17.586Z,13.40
2019-01-17T13:06:50.813Z,13.50
2019-01-17T13:09:24.204Z,13.40
2019-01-17T13:11:57.877Z,13.50
2019-01-17T13:14:31.686Z,13.50
2019-01-17T13:17:06.784Z,13.60
2019-01-17T13:19:49.106Z,13.70
2019-01-17T13:22:24.730Z,13.70
2019-01-17T13:25:00.266Z,13.80
2019-01-17T13:27:43.314Z,13.90
2019-01-17T13:30:25.549Z,14.10
2019-01-17T13:32:59.819Z,14.30
2019-01-17T13:35:40.608Z,14.40
2019-01-17T13:38:16.048Z,14.60
2019-01-17T13:40:51.526Z,14.90
2019-01-17T13:43:27.101Z,15.00
2019-01-17T13:46:21.844Z,15.10
2019-01-17T13:48:55.324Z,15.10
2019-01-17T13:51:28.846Z,15.20
2019-01-17T13:54:02.461Z,15.60
2019-01-17T13:56:36.769Z,16.10
2019-01-17T13:59:09.955Z,16.80
2019-01-17T14:01:44.117Z,16.90
2019-01-17T14:04:18.651Z,16.90
2019-01-17T14:06:55.521Z,17.40
2019-01-17T14:09:34.913Z,17.80
2019-01-17T14:12:09.906Z,18.00
2019-01-17T14:14:43.385Z,17.80
2019-01-17T14:17:17.317Z,17.30
2019-01-17T14:19:51.927Z,17.20
2019-01-17T14:22:25.901Z,17.40
2019-01-17T14:25:00.897Z,17.20
2019-01-17T14:27:37.059Z,16.80
2019-01-17T14:30:18.026Z,16.70
2019-01-17T14:32:55.481Z,16.80
2019-01-17T14:35:48.569Z,16.80
2019-01-17T14:38:23.920Z,16.70
2019-01-17T14:40:58.689Z,16.60
2019-01-17T14:43:32.995Z,16.70
2019-01-17T14:46:15.431Z,16.90
2019-01-17T14:48:55.346Z,17.10
2019-01-17T14:51:30.280Z,17.20
2019-01-17T14:54:03.871Z,17.60
2019-01-17T14:56:37.219Z,18.10
2019-01-17T14:59:11.892Z,18.50
2019-01-17T15:01:45.036Z,18.80
2019-01-17T15:04:58.333Z,18.80
2019-01-17T15:07:38.099Z,18.50
2019-01-17T15:10:16.853Z,18.70
2019-01-17T15:13:02.946Z,18.60
2019-01-17T15:15:57.595Z,18.40
2019-01-17T15:18:30.800Z,18.50
2019-01-17T15:21:05.255Z,18.80
2019-01-17T15:23:39.723Z,18.50
2019-01-17T15:26:14.842Z,18.50
2019-01-17T15:28:47.962Z,18.70
2019-01-17T15:31:21.281Z,19.20
2019-01-17T15:34:12.341Z,19.80
2019-01-17T15:36:45.895Z,20.30
2019-01-17T15:39:19.223Z,20.80
2019-01-17T15:41:53.330Z,21.00
2019-01-17T15:44:27.296Z,21.10
2019-01-17T15:47:00.654Z,21.20
2019-01-17T15:49:33.772Z,21.00
2019-01-17T15:52:07.750Z,21.10
2019-01-17T15:54:41.208Z,21.20
2019-01-17T15:57:14.623Z,21.10
2019-01-17T15:59:47.725Z,20.40
2019-01-17T16:02:21.049Z,20.50
2019-01-17T16:04:54.263Z,20.30
2019-01-17T16:07:28.356Z,20.70
2019-01-17T16:10:01.430Z,20.80
2019-01-17T16:12:34.829Z,20.60
2019-01-17T16:15:10.163Z,20.80
2019-01-17T16:17:43.370Z,20.70
2019-01-17T16:20:17.009Z,20.90
2019-01-17T16:22:51.913Z,21.10
2019-01-17T16:25:30.559Z,20.70
2019-01-17T16:28:03.135Z,21.40
2019-01-17T16:30:36.898Z,21.40
2019-01-17T16:33:10.398Z,21.20
2019-01-17T16:35:47.156Z,21.40
2019-01-17T16:41:30.063Z,20.50
2019-01-17T16:44:03.511Z,20.80
2019-01-17T16:46:37.118Z,21.60
2019-01-17T16:49:10.823Z,21.90
2019-01-17T16:51:44.089Z,21.80
2019-01-17T16:54:17.016Z,21.30
2019-01-17T16:56:51.204Z,21.80
2019-01-17T16:59:24.283Z,21.50
2019-01-17T17:02:00.330Z,21.90
2019-01-17T17:04:33.293Z,21.40
2019-01-17T17:07:07.789Z,21.70
2019-01-17T17:09:40.900Z,21.50
2019-01-17T17:12:15.831Z,22.10
2019-01-17T17:14:49.924Z,22.40
2019-01-17T17:17:23.879Z,22.40
2019-01-17T17:19:57.769Z,22.30
2019-01-17T17:22:30.783Z,21.90
2019-01-17T17:25:07.043Z,22.30
2019-01-17T17:27:40.307Z,22.50
2019-01-17T17:30:21.246Z,22.80
2019-01-17T17:32:54.348Z,22.50
2019-01-17T17:35:27.378Z,21.40
2019-01-17T17:38:00.594Z,21.50
2019-01-17T17:40:36.063Z,21.70
2019-01-17T17:43:09.749Z,22.10
2019-01-17T17:46:20.524Z,22.50
2019-01-17T17:49:05.176Z,22.40
2019-01-17T17:51:40.624Z,22.00
2019-01-17T17:54:13.663Z,21.20
2019-01-17T17:56:48.395Z,21.50
2019-01-17T18:03:03.972Z,22.40
2019-01-17T18:05:36.958Z,22.00
2019-01-17T18:08:10.116Z,22.10
2019-01-17T18:10:46.392Z,22.10
2019-01-17T18:13:19.388Z,21.80
2019-01-17T18:15:53.633Z,22.30
2019-01-17T18:18:27.056Z,22.60
2019-01-17T18:21:00.062Z,22.20
2019-01-17T18:23:33.247Z,22.40
2019-01-17T18:26:06.213Z,22.20
2019-01-17T18:28:39.817Z,21.70
2019-01-17T18:31:13.019Z,22.30
2019-01-17T18:33:46.996Z,23.10
2019-01-17T18:36:21.173Z,23.10
2019-01-17T18:38:55.379Z,23.40
2019-01-17T18:41:30.488Z,23.10
2019-01-17T18:44:04.174Z,23.10
2019-01-17T18:46:37.319Z,24.10
2019-01-17T18:49:10.375Z,23.20
2019-01-17T18:51:43.721Z,23.00
2019-01-17T18:54:16.723Z,23.20
2019-01-17T18:56:49.707Z,22.60
2019-01-17T18:59:22.580Z,22.80
2019-01-17T19:01:55.511Z,22.80
2019-01-17T19:04:30.032Z,23.10
2019-01-17T19:07:02.912Z,22.60
2019-01-17T19:09:35.771Z,22.60
2019-01-17T19:12:08.979Z,22.50
2019-01-17T19:14:42.156Z,22.30
2019-01-17T19:17:18.648Z,22.40
2019-01-17T19:19:51.883Z,22.50
2019-01-17T19:22:27.110Z,22.70
2019-01-17T19:25:00.366Z,22.10
2019-01-17T19:27:34.954Z,22.40
2019-01-17T19:30:09.608Z,22.80
2019-01-17T19:32:42.559Z,22.70
2019-01-17T19:35:15.961Z,22.70
2019-01-17T19:37:48.958Z,22.10
2019-01-17T19:40:24.175Z,22.00
2019-01-17T19:42:57.499Z,22.10
2019-01-17T19:45:30.512Z,21.80
2019-01-17T19:48:03.825Z,22.10
2019-01-17T19:50:38.941Z,21.90
2019-01-17T19:53:12.700Z,21.50
2019-01-17T19:55:45.757Z,21.40
2019-01-17T19:58:18.792Z,21.20
2019-01-17T20:00:52.851Z,21.60
2019-01-17T20:03:26.427Z,21.90
2019-01-17T20:05:59.531Z,21.90
2019-01-17T20:08:32.736Z,21.80
2019-01-17T20:11:05.604Z,21.50
2019-01-17T20:13:39.310Z,21.20
2019-01-17T20:16:14.121Z,21.20
2019-01-17T20:18:47.023Z,21.80
2019-01-17T20:21:22.172Z,21.60
2019-01-17T20:23:55.449Z,21.10
2019-01-17T20:26:28.490Z,21.60
2019-01-17T20:29:07.685Z,22.20
2019-01-17T20:31:40.627Z,22.10
2019-01-17T20:34:16.608Z,21.90
2019-01-17T20:36:51.705Z,21.60
2019-01-17T20:39:26.517Z,21.50
2019-01-17T20:42:06.540Z,21.70
2019-01-17T20:44:47.359Z,21.50
2019-01-17T20:47:23.479Z,21.40
2019-01-17T20:49:56.922Z,20.80
2019-01-17T20:52:30.442Z,20.50
2019-01-17T20:55:05.447Z,20.60
2019-01-17T20:57:38.616Z,20.80
2019-01-17T21:00:28.218Z,20.80
2019-01-17T21:03:02.824Z,20.50
2019-01-17T21:05:36.084Z,20.70
2019-01-17T21:08:09.850Z,20.80
2019-01-17T21:10:42.868Z,20.60
2019-01-17T21:13:23.131Z,20.80
2019-01-17T21:16:01.223Z,21.00
2019-01-17T21:18:37.968Z,20.60
2019-01-17T21:21:11.089Z,20.70
2019-01-17T21:23:44.067Z,20.10
2019-01-17T21:26:16.861Z,19.90
2019-01-17T21:29:02.605Z,19.90
2019-01-17T21:31:39.667Z,19.80
2019-01-17T21:34:18.318Z,19.90
2019-01-17T21:36:50.829Z,19.80
2019-01-17T21:39:23.603Z,20.00
2019-01-17T21:41:58.876Z,20.50
2019-01-17T21:44:31.758Z,20.90
2019-01-17T21:47:06.460Z,20.80
2019-01-17T21:49:39.247Z,20.70
2019-01-17T21:52:14.635Z,20.50
2019-01-17T21:54:47.854Z,20.20
2019-01-17T21:57:20.806Z,20.00
2019-01-17T21:59:58.910Z,20.00
2019-01-17T22:02:41.618Z,20.20
2019-01-17T22:05:15.807Z,20.10
2019-01-17T22:08:01.121Z,20.40
2019-01-17T22:10:52.473Z,20.30
2019-01-17T22:13:29.338Z,20.40
2019-01-17T22:16:02.276Z,20.40
2019-01-17T22:18:35.203Z,20.10
2019-01-17T22:21:08.312Z,20.00
2019-01-17T22:23:41.271Z,20.10
2019-01-17T22:26:20.824Z,20.10
2019-01-17T22:28:48.629Z,20.10
2019-01-17T22:31:21.441Z,20.20
2019-01-17T22:33:54.341Z,20.30
2019-01-17T22:36:27.225Z,20.20
2019-01-17T22:39:00.044Z,20.20
2019-01-17T22:41:32.835Z,19.80
2019-01-17T22:44:06.791Z,19.70
2019-01-17T22:46:39.589Z,19.50
2019-01-17T22:49:12.427Z,19.20
2019-01-17T22:51:45.224Z,19.10
2019-01-17T22:54:18.090Z,19.10
2019-01-17T22:56:50.892Z,18.80
2019-01-17T22:59:24.021Z,18.60
2019-01-17T23:01:57.056Z,18.60
2019-01-17T23:04:29.863Z,18.70
2019-01-17T23:07:02.690Z,19.00
2019-01-17T23:09:35.787Z,19.10
2019-01-17T23:12:08.632Z,18.90
2019-01-17T23:14:41.600Z,18.90
2019-01-17T23:17:15.319Z,18.80
2019-01-17T23:20:00.060Z,18.70
2019-01-17T23:22:32.863Z,18.70
2019-01-17T23:25:06.617Z,18.50
2019-01-17T23:27:39.407Z,18.30
2019-01-17T23:30:12.862Z,18.30
2019-01-17T23:32:45.808Z,18.30
2019-01-17T23:35:18.759Z,18.20
2019-01-17T23:37:51.623Z,18.10
2019-01-17T23:40:25.137Z,18.10
2019-01-17T23:42:58.011Z,18.10
2019-01-17T23:45:31.281Z,17.90
2019-01-17T23:48:07.037Z,17.90
2019-01-17T23:50:39.876Z,17.80
2019-01-17T23:53:12.861Z,17.70
2019-01-17T23:55:45.847Z,17.80
2019-01-17T23:58:18.899Z,17.70
